Create Custom Reports and Graphics: Custom Report

Bell Hill-West

Current Conditions

8/30/26 9:45 PM (-07:00)
Updated Every 15 Minutes
Temp 63.3 °F   1.1
RH 67 %   7
Dew Pt 52.2 °F   3.9
Wet Bulb 57.4 °F   2.7
Wind Dir SSW | 200 °
Wind Spd 2.0 mph   1.9
Wind Gust 3.1 mph   0.3
Solar Rad 0 W/m2   0
BatVolt 12.8 V   0.0

Today & Yesterday

Bell Hill-West

8/30/26 9:45 PM (-07:00)
Updated Every 15 Minutes
Daily Max Temp 89.3 °F   2.9
Time of Max Temp 1633
Daily Min Temp 47.2 °F   3.6
Time of Min Temp 0628
Daily Max Wind 14.8 mph   2.4
Time of Max Wind 1754
Max Wind Dir S | 181 °
Daily Rain 0.00 In
Daily ETo 0.205 in   0.003
Yest MaxT 86.4 °F
Yest MinT 43.5 °F
Yest MaxGst 17.2 mph
Yest Precip 0.00 In
Yest ETo 0.21 In

Last 48 Hours

Bell Hill-West

Hourly Data | America/Los_Angeles
as of 8/30/26 9:56 PM PDT
Date & Time Temp (°F) WindChill (°F) RH (%) Dew Pt (°F) Wet Bulb (°F) Wind Dir (°) Wind Spd (mph) Wind Gust (mph) Wind Gst Dir (°) Solar Rad (W/m2) Latest Rain (In) Daily Rain (In) Daily Min Temp (°F) Daily Max Temp (°F) Daily ETo (in)
8/30/26 - 2100 72.2 - 52 53.6 60.9 SSE | 166 0.9 4.4 S | 177 0 0.00 0.00 47.2 89.3 0.205
8/30/26 - 2000 77.7 - 45 54.4 62.6 S | 185 3.5 8.4 SSW | 207 26 0.00 0.00 47.2 89.3 0.205
8/30/26 - 1900 82.8 - 37 54.0 63.4 SSW | 201 7.4 14.2 S | 182 181 0.00 0.00 47.2 89.3 0.204
8/30/26 - 1800 86.6 - 30 51.5 62.6 SSW | 196 7.9 14.8 S | 181 371 0.00 0.00 47.2 89.3 0.195
8/30/26 - 1700 88.5 - 26 49.3 61.8 SSW | 203 6.8 14.5 S | 176 553 0.00 0.00 47.2 89.3 0.179
8/30/26 - 1600 88.3 - 26 49.4 61.8 SSW | 202 6.5 11.8 S | 191 699 0.00 0.00 47.2 89.2 0.159
8/30/26 - 1500 88.2 - 25 48.1 61.2 S | 191 4.7 13.2 S | 183 800 0.00 0.00 47.2 89.2 0.135
8/30/26 - 1400 86.2 - 25 46.6 60.2 NNW | 342 3.0 10.8 NNE | 23 849 0.00 0.00 47.2 88.0 0.109
8/30/26 - 1300 83.8 - 29 48.2 60.5 NNE | 14 3.7 11.5 NNE | 18 841 0.00 0.00 47.2 85.3 0.083
8/30/26 - 1200 79.8 - 36 50.0 60.6 N | 11 3.6 11.8 NNE | 21 774 0.00 0.00 47.2 82.0 0.058
8/30/26 - 1100 74.3 - 47 52.7 60.8 NW | 322 2.0 5.4 NW | 326 658 0.00 0.00 47.2 77.5 0.035
8/30/26 - 1000 67.6 - 59 52.8 59.2 NNE | 20 2.0 6.4 N | 8 498 0.00 0.00 47.2 71.9 0.018
8/30/26 - 0900 62.1 - 67 51.1 56.4 NNE | 24 1.0 4.4 N | 7 311 0.00 0.00 47.2 64.8 0.007
8/30/26 - 0800 51.3 - 85 47.0 49.6 S | 191 1.8 3.4 S | 187 116 0.00 0.00 47.2 57.5 0.001
8/30/26 - 0700 47.4 - 91 44.9 46.6 S | 190 2.9 3.8 SSW | 193 4 0.00 0.00 47.2 53.4 0.000
8/30/26 - 0600 47.8 - 90 44.9 46.8 S | 191 2.0 4.4 SSW | 198 0 0.00 0.00 47.4 53.4 0.000
8/30/26 - 0500 48.6 - 88 45.2 47.4 S | 190 2.6 3.8 SSW | 195 0 0.00 0.00 48.2 53.4 0.000
8/30/26 - 0400 49.8 - 84 45.3 48.0 S | 191 2.6 3.8 S | 180 0 0.00 0.00 49.0 53.4 0.000
8/30/26 - 0300 50.9 - 81 45.4 48.6 S | 191 2.6 3.8 SSW | 195 0 0.00 0.00 50.1 53.4 0.000
8/30/26 - 0200 52.6 - 78 45.9 49.6 S | 188 3.1 4.4 S | 184 0 0.00 0.00 51.8 53.4 0.000
8/30/26 - 0100 52.9 - 77 45.8 49.7 SSW | 193 2.4 3.8 S | 186 0 0.00 0.00 43.5 86.4 0.208
8/30/26 - 0000 54.4 - 73 46.1 50.5 SSW | 197 1.7 4.1 SSW | 209 0 0.00 0.00 43.5 86.4 0.208
8/29/26 - 2300 56.8 - 70 47.2 52.1 SSW | 193 1.0 2.7 SSW | 210 0 0.00 0.00 43.5 86.4 0.208
8/29/26 - 2200 62.9 - 59 48.5 55.1 SSW | 192 0.2 3.4 SSW | 192 0 0.00 0.00 43.5 86.4 0.208
8/29/26 - 2100 67.2 - 53 49.3 57.0 SW | 218 1.3 8.4 WSW | 240 0 0.00 0.00 43.5 86.4 0.208
8/29/26 - 2000 71.6 - 46 49.6 58.4 SW | 236 3.2 10.1 WSW | 256 30 0.00 0.00 43.5 86.4 0.208
8/29/26 - 1900 77.2 - 38 49.5 59.7 WSW | 246 6.6 14.5 SW | 230 194 0.00 0.00 43.5 86.4 0.207
8/29/26 - 1800 81.3 - 33 49.8 60.8 WSW | 251 7.2 14.8 WNW | 284 385 0.00 0.00 43.5 86.4 0.199
8/29/26 - 1700 83.8 - 32 50.8 61.8 WSW | 243 7.2 17.2 WSW | 247 564 0.00 0.00 43.5 86.4 0.185
8/29/26 - 1600 85.0 - 30 50.0 61.6 WSW | 249 7.6 14.5 WSW | 237 712 0.00 0.00 43.5 86.4 0.165
8/29/26 - 1500 85.3 - 27 47.5 60.5 W | 259 6.0 13.5 W | 266 822 0.00 0.00 43.5 86.4 0.141
8/29/26 - 1400 84.5 - 26 46.3 59.8 WSW | 257 5.9 12.5 SW | 224 868 0.00 0.00 43.5 86.0 0.114
8/29/26 - 1300 82.3 - 31 48.5 60.3 W | 259 5.4 12.1 SW | 225 856 0.00 0.00 43.5 83.7 0.087
8/29/26 - 1200 78.2 - 37 49.6 60.0 NNE | 31 3.2 10.1 ENE | 77 791 0.00 0.00 43.5 80.8 0.060
8/29/26 - 1100 73.5 - 43 49.5 58.8 NNE | 27 1.8 6.1 NE | 44 673 0.00 0.00 43.5 76.4 0.038
8/29/26 - 1000 67.7 - 48 47.1 56.0 NNE | 22 1.6 5.4 NNE | 31 512 0.00 0.00 43.5 70.7 0.021
8/29/26 - 0900 61.2 - 49 41.7 51.0 SSE | 168 0.9 5.1 NNE | 28 324 0.00 0.00 43.5 66.3 0.009
8/29/26 - 0800 48.2 - 69 38.5 43.8 S | 184 1.7 3.8 S | 185 127 0.00 0.00 43.5 54.0 0.003
8/29/26 - 0700 44.0 - 75 36.6 40.8 S | 183 3.0 4.4 S | 185 4 0.00 0.00 43.5 49.1 0.002
8/29/26 - 0600 44.4 42.9 76 37.3 41.4 S | 184 3.4 4.8 S | 188 0 0.00 0.00 43.8 49.1 0.002
8/29/26 - 0500 45.7 - 74 37.8 42.3 S | 184 2.5 4.4 S | 182 0 0.00 0.00 45.2 49.1 0.001
8/29/26 - 0400 47.2 - 70 38.1 43.2 SSW | 194 2.9 4.8 S | 184 0 0.00 0.00 46.1 49.1 0.001
8/29/26 - 0300 47.6 46.8 71 38.8 43.7 SSW | 192 3.2 4.4 SSW | 194 0 0.00 0.00 47.1 49.1 0.001
8/29/26 - 0200 48.6 47.6 70 39.1 44.3 S | 189 3.5 4.8 S | 181 0 0.00 0.00 48.0 49.1 0.000
8/29/26 - 0100 50.6 - 66 39.8 45.6 S | 188 3.4 5.1 S | 189 0 0.00 0.00 49.1 85.6 0.166
8/29/26 - 0000 51.7 - 67 41.1 46.8 SSW | 198 3.0 4.8 SSW | 195 0 0.00 0.00 50.7 85.6 0.165
8/28/26 - 2300 55.7 - 63 43.3 49.6 SSW | 194 2.8 5.4 S | 174 0 0.00 0.00 53.3 85.6 0.165
8/28/26 - 2200 63.3 - 55 46.7 54.3 S | 182 1.3 5.4 SSE | 166 0 0.00 0.00 56.8 85.6 0.164
8/28/26 - 2100 69.0 - 45 47.1 56.4 S | 180 4.0 8.1 S | 191 0 0.00 0.00 56.8 85.6 0.164
Max 88.5 47.6 91 54.4 63.4 - 7.9 17.2 - 868 0.00 0.00 56.8 89.3 0.208
Avg 65.9 45.8 55 46.6 54.2 - 3.4 7.7 - 276 0.00 - - - -
Min 44.0 42.9 25 36.6 40.8 - 0.2 2.7 - 0 0.00 0.00 43.5 49.1 0.000
Total - - - - - - - - - - 0.00 - - - -

Last 30 Days

Bell Hill-West

Daily Data | America/Los_Angeles
as of 8/30/26 9:56 PM PDT
Date Daily Max Temp (°F) Time of Max Temp Daily Min Temp (°F) Time of Min Temp Daily Rain (In) Month Precip (In) Season Precip (In) Wind Spd (mph) Daily Max Wind (mph) Time of Max Wind Max Wind Dir (°) Daily ETo (in) 7 Day ETo (in) Daily Solar Rad (Cal/cm2) Dew Pt (°F) Daily Max RH (%) Daily Min RH (%) Hrs 70-85F (hrs) Hrs > 95F (hrs) Powdery Mildew Stress (pts) GDDs (DL) GDDs (Mx/Mn) Seas GDDs (DL) Seas GDDs (Smpl) Hrs <= 32F (hrs) Hrs <= 28F (hrs) Chilling <=45F (hrs) Chill Hrs 32-45F (hrs) Utah Chilling (Units) Degree Hrs (hrs) MinBV Day (V)
8/29/26 86.4 1445 43.5 0629 0.00 0.00 0.00 3.5 17.2 1636 WSW | 247 0.208 1.50 590 45.1 79 21 4.16 0.00 10 15.7 15.0 2,561 2,452 0.0 0.0 2.1 2.1 0.5 157.5 12.6
8/28/26 85.6 1508 49.1 0101 0.00 0.00 0.00 3.5 14.8 1505 WSW | 254 0.166 1.51 392 41.6 69 11 10.99 0.00 20 18.2 17.4 2,545 2,437 0.0 0.0 0.0 0.0 1.0 161.0 12.7
8/27/26 95.3 1610 53.8 0653 0.00 0.00 0.00 3.3 16.8 1623 WSW | 257 0.227 1.56 582 50.4 87 16 3.63 0.10 0 24.0 24.6 2,527 2,419 0.0 0.0 0.0 0.0 -16.0 277.4 12.6
8/26/26 94.3 1529 45.9 0636 0.00 0.00 0.00 3.3 17.5 1837 WSW | 238 0.224 1.56 606 46.3 84 13 3.16 0.00 0 20.6 20.1 2,503 2,395 0.0 0.0 0.0 0.0 0.0 239.3 12.6
8/25/26 92.1 1436 50.8 0550 0.00 0.00 0.00 3.7 13.5 1810 S | 175 0.227 1.57 590 47.4 81 15 3.62 0.00 0 20.9 21.4 2,482 2,375 0.0 0.0 0.0 0.0 0.0 237.8 12.6
8/24/26 93.3 1337 51.3 0618 0.00 0.00 0.00 4.0 16.2 1547 SSW | 201 0.231 1.57 590 49.4 82 14 3.18 0.00 0 21.6 22.3 2,461 2,353 0.0 0.0 0.0 0.0 0.0 244.8 12.6
8/23/26 95.0 1605 49.7 0618 0.00 0.00 0.00 3.2 13.8 1550 SSW | 212 0.216 1.56 582 50.1 90 21 2.95 0.01 0 22.1 22.4 2,440 2,331 0.0 0.0 0.0 0.0 -16.0 261.9 12.7
8/22/26 91.1 1423 48.5 0642 0.00 0.00 0.00 3.5 15.5 1519 WSW | 237 0.223 1.56 595 47.4 84 18 2.71 0.00 0 19.4 19.8 2,417 2,309 0.0 0.0 0.0 0.0 0.0 216.5 12.7
8/21/26 90.4 1342 54.2 0101 0.00 0.00 0.00 3.7 17.5 1528 SSW | 207 0.215 1.54 537 49.2 79 18 3.82 0.00 0 22.9 22.3 2,398 2,289 0.0 0.0 0.0 0.0 0.0 233.5 12.7
8/20/26 95.1 1347 54.0 0636 0.00 0.00 0.00 3.8 15.5 1723 S | 173 0.223 1.52 541 50.5 82 14 3.09 0.02 10 24.1 24.6 2,375 2,267 0.0 0.0 0.0 0.0 -16.5 273.3 12.6
8/19/26 96.6 1411 56.8 0639 0.00 0.00 0.00 4.0 15.5 1547 S | 186 0.238 1.50 585 55.4 84 25 2.71 1.69 20 26.4 26.7 2,351 2,242 0.0 0.0 0.0 0.0 -17.0 307.7 12.7
8/18/26 95.7 1419 55.8 0610 0.00 0.00 0.00 3.2 15.8 1739 SSW | 209 0.226 1.49 580 52.3 78 20 2.59 0.48 30 24.9 25.7 2,325 2,215 0.0 0.0 0.0 0.0 -16.5 286.6 12.7
8/17/26 91.4 1507 59.0 0446 0.00 0.00 0.00 3.2 15.8 1332 SSW | 204 0.216 1.50 550 51.8 80 21 3.46 0.00 40 24.0 25.2 2,300 2,190 0.0 0.0 0.0 0.0 -16.5 249.1 12.6
8/16/26 89.3 1514 50.2 0633 0.00 0.00 0.00 3.6 14.5 1650 S | 186 0.218 1.53 591 53.8 100 26 3.57 0.00 50 20.6 19.8 2,276 2,164 0.0 0.0 0.0 0.0 -16.0 221.9 12.6
8/15/26 83.6 1358 49.8 0623 0.00 0.00 0.00 3.5 14.2 1917 WSW | 238 0.198 1.58 580 55.6 100 33 11.23 0.00 60 17.3 16.7 2,255 2,145 0.0 0.0 0.0 0.0 0.0 161.1 12.7
8/14/26 80.4 1457 51.6 0631 0.00 0.00 0.00 3.8 15.5 1638 SW | 234 0.197 1.65 607 56.5 100 47 9.68 0.00 40 16.0 16.0 2,238 2,128 0.0 0.0 0.0 0.0 0.0 121.0 12.7
8/13/26 81.3 1541 53.0 0620 0.00 0.00 0.00 4.2 18.2 1440 W | 262 0.202 1.69 599 56.9 96 46 10.38 0.00 20 17.6 17.1 2,222 2,112 0.0 0.0 0.0 0.0 0.0 133.5 12.6
8/12/26 90.8 1508 54.0 0632 0.00 0.00 0.00 3.9 17.8 1517 SW | 222 0.229 1.74 604 56.4 91 29 4.15 0.00 0 23.1 22.4 2,204 2,095 0.0 0.0 0.0 0.0 -16.5 249.2 12.5
8/11/26 93.6 1359 55.4 0551 0.00 0.00 0.00 3.7 17.8 1500 S | 184 0.237 1.78 616 56.7 90 28 3.12 0.00 0 24.6 24.5 2,181 2,072 0.0 0.0 0.0 0.0 -16.5 274.3 12.6
8/10/26 98.6 1313 54.8 0623 0.00 0.00 0.00 4.2 19.8 1329 SW | 216 0.250 1.81 602 53.4 76 23 2.76 2.34 0 26.7 26.7 2,157 2,048 0.0 0.0 0.0 0.0 -17.0 326.6 12.6
8/9/26 103.1 1448 56.0 0616 0.00 0.00 0.00 3.7 15.5 1612 W | 259 0.264 1.82 641 48.4 68 14 2.19 6.33 0 29.4 29.6 2,130 2,021 0.0 0.0 0.0 0.0 -17.0 376.2 12.6
8/8/26 104.5 1455 58.9 0615 0.00 0.00 0.00 3.5 15.8 1630 WSW | 243 0.267 1.81 631 47.0 60 11 2.11 7.28 0 31.8 31.7 2,100 1,992 0.0 0.0 0.0 0.0 -18.0 421.5 12.6
8/7/26 101.8 1639 56.6 0640 0.00 0.00 0.00 3.1 14.8 1418 SSW | 200 0.239 1.81 593 52.2 84 13 2.90 6.14 0 29.5 29.2 2,069 1,960 0.0 0.0 0.0 0.0 -17.5 380.8 12.6
8/6/26 99.3 1440 55.6 0638 0.00 0.00 0.00 3.6 18.5 1532 SSW | 200 0.258 1.82 642 54.0 93 13 2.91 3.70 0 27.0 27.5 2,039 1,931 0.0 0.0 0.0 0.0 -17.0 325.9 12.6
8/5/26 98.8 1359 57.6 0558 0.00 0.00 0.00 3.8 18.8 1613 SSW | 197 0.265 1.82 650 54.4 87 17 2.68 3.29 0 27.6 28.2 2,012 1,903 0.0 0.0 0.0 0.0 -17.0 327.5 12.6
8/4/26 100.8 1408 56.5 0551 0.00 0.00 0.00 3.8 16.5 1810 S | 188 0.266 1.82 642 55.9 81 20 3.06 5.90 0 29.4 28.7 1,985 1,875 0.0 0.0 0.0 0.0 -17.5 373.0 12.6
8/3/26 102.7 1611 56.5 0611 0.00 0.00 0.00 3.2 16.8 1759 SSW | 198 0.256 1.80 646 53.3 81 15 2.94 6.43 0 29.3 29.6 1,955 1,846 0.0 0.0 0.0 0.0 -17.5 379.2 12.6
8/2/26 98.8 1626 54.4 0620 0.00 0.00 0.00 3.7 16.5 1253 WNW | 290 0.259 1.79 652 53.0 84 20 2.99 4.96 0 26.5 26.6 1,926 1,817 0.0 0.0 0.0 0.0 -17.0 326.3 12.6
8/1/26 99.0 1416 54.8 0639 0.00 0.00 0.00 3.9 16.8 1457 SSW | 202 0.269 1.79 659 52.3 87 16 2.64 4.04 0 26.2 26.9 1,899 1,790 0.0 0.0 0.0 0.0 -16.5 320.9 12.6
7/31/26 98.3 1614 50.8 0553 0.00 0.00 0.00 3.4 15.2 1729 WSW | 251 0.252 1.77 661 51.5 84 18 3.03 3.43 0 24.2 24.5 1,873 1,763 0.0 0.0 0.0 0.0 -16.0 301.6 12.6
Max 104.5 - 59.0 - 0.00 0.00 0.00 4.2 19.8 - - 0.269 1.82 661 56.9 100 47 11.23 7.28 - 31.8 31.7 - - 0.0 0.0 2.1 2.1 1.0 421.5 12.7
Avg - - - - - - - 3.6 - - - - - - 51.6 - - 4.08 1.87 - 23.7 23.8 - - 0.0 0.0 0.1 0.1 -11.1 - -
Min 80.4 - 43.5 - 0.00 0.00 0.00 3.1 13.5 - - 0.166 1.49 392 41.6 60 11 2.11 0.00 - 15.7 15.0 - - 0.0 0.0 0.0 0.0 -18.0 121.0 12.5
Total - - - - - - - - - - - - - - - - - 122.42 56.14 - 711.6 713.0 - - 0.0 0.0 2.1 2.1 -334.0 - -

Bell Hill-West Climate Summary

Current Yeaer

Current Year | Showing 1/1/26 - 8/29/26
as of 8/30/26 9:56 PM PDT
Temperature (°F) Max Wind Gust (mph) Precip (in) Days
Month Days Avg High Avg Low Max Min Avg Max Total Daily Min Temp < 28 Daily Min Temp < 32 Daily Max Temp > 90 Daily Max Temp > 100 Daily Rain > 0.01 Daily Rain > 0.1
Jan 2026 31 60.8 33.1 74.6 23.8 11.4 35.6 3.93 7 19 0 0 6 5
Feb 2026 28 60.6 36.7 73 23.7 13.8 23.2 3.47 2 10 0 0 10 8
Mar 2026 31 76.3 38.4 92 30.1 13.8 23.2 0.02 0 2 1 0 1 0
Apr 2026 30 67.4 39.2 81.7 31.7 15.3 28.2 2.78 0 2 0 0 7 5
May 2026 31 78 45.7 89.3 36.9 16.9 33.3 0.59 0 0 0 0 3 3
Jun 2026 30 88 50.9 100.4 39.2 17.3 27.9 0 0 0 12 1 0 0
Jul 2026 31 92.6 52.9 100.1 47.6 17.5 31.6 0 0 0 25 1 0 0
Aug 2026 29 94.1 53.4 104.5 43.5 16.3 19.8 0 0 0 23 5 0 0
Total 241 - - - - - - 10.79 9 33 61 7 27 21
Average 30.1 77.3 43.8 77.3 43.8 15.3 - 1.35 1.1 4.1 7.6 0.9 3.4 2.6
Maximum 31 94.1 53.4 104.5 - - 35.6 3.93 7 19 25 5 10 8
Minimum 28 60.6 33.1 - 23.7 - - 0 0 0 0 0 0 0

Bell Hill-West Climate Summary

Last Year

Last Year | Showing 1/1/25 - 12/31/25
as of 8/30/26 9:56 PM PDT
Temperature (°F) Max Wind Gust (mph) Precip (in) Days
Month Days Avg High Avg Low Max Min Avg Max Total Daily Min Temp < 28 Daily Min Temp < 32 Daily Max Temp > 90 Daily Max Temp > 100 Daily Rain > 0.01 Daily Rain > 0.1
Jan 2025 31 60.7 29.7 69.3 22.5 10.3 19.2 0.8 16 22 0 0 3 2
Feb 2025 28 58.3 33.8 80 23.6 14.5 34.6 8.7 5 14 0 0 11 8
Mar 2025 31 58.9 36 82.1 29 18.5 43.3 4.21 0 10 0 0 11 7
Apr 2025 30 70.4 40.1 83.3 31.2 15.3 22.9 0.65 0 2 0 0 4 2
May 2025 31 78.9 44.1 98.2 36.9 16.7 23.2 0.1 0 0 2 0 1 0
Jun 2025 30 86.9 50.5 94.5 40.5 16.6 20.5 0 0 0 9 0 0 0
Jul 2025 31 89.5 53.9 99.1 45.3 16.7 20.5 0 0 0 15 0 0 0
Aug 2025 31 92.4 53.4 100.2 43.5 17 20.9 0 0 0 21 1 0 0
Sep 2025 30 85 52.7 99.6 45.5 15.6 20.9 0.36 0 0 11 0 4 2
Oct 2025 31 72 42.6 85 34.5 12.7 20.5 1.08 0 0 0 0 6 2
Nov 2025 30 65.7 39.4 80 29.7 12.1 31.6 3.58 0 3 0 0 9 4
Dec 2025 31 61.4 36 72.4 27.6 13 43.3 7.73 2 15 0 0 11 9
Total 365 - - - - - - 27.21 23 66 58 1 60 36
Average 30.4 73.4 42.7 73.4 42.7 14.9 - 2.27 1.9 5.5 4.8 0.1 5 3
Maximum 31 92.4 53.9 100.2 - - 43.3 8.7 16 22 21 1 11 9
Minimum 28 58.3 29.7 - 22.5 - - 0 0 0 0 0 0 0
Calm: 3.1%
Calm: 0.1%